Decoded Metar for KTOL (TOLEDO in OH, USA) (IATA:TOL) | Meteo·Mobile Aviation Weather
aviador You're here:

KTOL Decoded Metar

TOLEDO in OH, USA
Report Time2018-12-14 23:21:00
UTC Time2018-12-14 23:54:50
Flight Rules mvfr MVFR
Wind360° at 06 kt
W.Decomp.*RWY 34: 5.4 kt HW 2.5 kt RCW
RWY 07: 2.5 kt HW 5.4 kt LCW
Visibility8047 m
Phenomena:Mist
Clouds:Broken 014 Hf
Expected CloudBase > 800 ft AGL from Temp-Dew spread
Ceiling1,400 ft
Temp07°C (ISA -7)
Dew Point05°C (87% RH)
AAT3.7°C
QNH1022 hPa
Density Alt-292 ft
Elevation689 ft
Report Wrong Elevation
Raw Report
KTOL 142321Z 36006KT 5SM BR BKN014 07/05 A3017=

Extra information for KTOL:More info

Metar Taf Metar & Taf Last 4 Metars F.Rules Stats Wind Profile Meteogram Temp Stats Airport Information Weather charts Add Link Nearby VenuesMetar ALERT Operation Metar Decoded Social comments

AIRNAV info for KTOL